Terminal Aerodrome Forecast
Issued by NWS Spokane, WA

Home | Current Version | Previous Version | Text Only | Print | Product List | Glossary On
Versions: 1 2 3 4 5 6 7 8 9 10 11 12 13 14 15 16 17 18 19
000
FTUS46 KOTX 050520
TAFEAT
TAF
KEAT 050520Z 0506/0606 31012KT P6SM SKC
     FM050700 30005KT P6SM FEW060 SCT110 BKN200
     FM052100 30003KT 5SM -SN SCT050 OVC080
     FM060100 30003KT 3SM -SN BKN010 OVC025=

USA.gov is the U.S. government's official web portal to all federal, state and local government web resources and services.